Time;durP1;ratioP1;P1;durP2;ratioP2;P2;SDS_P1;SDS_P2;PMS_P1;PMS_P2;Temp;Humidity;BMP_temperature;BMP_pressure;BME280_temperature;BME280_humidity;BME280_pressure;Samples;Min_cycle;Max_cycle;Signal;HPM_P1;HPM_P2
2022/05/06 00:02:43;;;;;;;7.03;5.00;;;17.70;76.20;;;;;;10905688;32;20046;-71
2022/05/06 00:08:45;;;;;;;7.68;5.70;;;17.50;76.60;;;;;;10905885;32;20327;-70
2022/05/06 00:14:47;;;;;;;6.25;4.60;;;17.40;77.00;;;;;;10888254;32;20339;-70
2022/05/06 00:20:49;;;;;;;8.52;5.35;;;17.30;77.30;;;;;;10905112;32;20028;-70
2022/05/06 00:26:51;;;;;;;6.95;4.75;;;17.20;77.60;;;;;;10905118;32;20027;-71
2022/05/06 00:32:54;;;;;;;7.68;4.43;;;17.20;77.50;;;;;;10904905;32;20049;-70
2022/05/06 00:38:57;;;;;;;6.75;4.65;;;17.30;77.60;;;;;;10904737;32;20304;-71
2022/05/06 00:45:01;;;;;;;7.43;5.50;;;17.30;77.40;;;;;;10904751;32;20289;-71
2022/05/06 00:51:06;;;;;;;8.10;5.12;;;17.30;77.50;;;;;;10904553;32;20019;-70
2022/05/06 00:57:10;;;;;;;6.05;4.82;;;17.20;77.60;;;;;;10904435;32;20024;-71
2022/05/06 01:03:12;;;;;;;5.78;4.65;;;17.30;77.60;;;;;;10888498;32;20059;-71
2022/05/06 01:09:16;;;;;;;7.82;5.60;;;17.20;77.70;;;;;;10904297;32;20050;-70
2022/05/06 01:15:27;;;;;;;5.53;3.80;;;17.10;77.80;;;;;;10498905;32;12093476;-71
2022/05/06 01:21:36;;;;;;;6.22;4.15;;;17.00;78.10;;;;;;10826431;33;20058;-71
2022/05/06 01:27:51;;;;;;;5.55;4.15;;;17.00;78.30;;;;;;10826773;33;20403;-70
2022/05/06 01:33:55;;;;;;;13.23;5.25;;;17.00;78.30;;;;;;10829691;32;20273;-70
2022/05/06 01:40:01;;;;;;;7.25;4.15;;;17.00;78.20;;;;;;10842930;32;20069;-70
2022/05/06 01:46:09;;;;;;;7.05;4.85;;;17.00;78.20;;;;;;10897488;32;20049;-70
2022/05/06 01:52:15;;;;;;;6.07;4.72;;;16.90;78.30;;;;;;10907771;32;20082;-70
2022/05/06 01:58:18;;;;;;;6.35;4.82;;;17.00;78.20;;;;;;10910348;32;20031;-70
2022/05/06 02:10:56;;;;;;;6.90;5.03;;;16.90;78.30;;;;;;10909802;32;20093;-70
2022/05/06 02:17:07;;;;;;;9.73;6.90;;;16.80;78.60;;;;;;10909602;32;20012;-71
2022/05/06 02:23:30;;;;;;;8.65;6.32;;;16.70;79.00;;;;;;10908943;32;20046;-70
2022/05/06 02:29:32;;;;;;;10.43;7.65;;;16.70;79.10;;;;;;10908710;32;20046;-69
2022/05/06 02:35:37;;;;;;;9.50;6.62;;;16.70;79.30;;;;;;10909102;32;20031;-70
2022/05/06 02:41:40;;;;;;;10.65;6.53;;;16.70;79.40;;;;;;10894874;32;20285;-69
2022/05/06 02:47:42;;;;;;;9.25;6.80;;;16.60;79.40;;;;;;10907457;32;20046;-70
2022/05/06 02:53:44;;;;;;;7.28;5.50;;;16.60;79.40;;;;;;10908399;32;20019;-69
2022/05/06 02:59:47;;;;;;;10.48;6.82;;;16.60;79.30;;;;;;10907225;32;20347;-69
2022/05/06 03:05:49;;;;;;;8.90;6.45;;;16.60;79.50;;;;;;10907897;32;20019;-70
2022/05/06 03:11:52;;;;;;;8.15;5.80;;;16.50;79.60;;;;;;10907769;32;20081;-70
2022/05/06 03:17:56;;;;;;;8.63;7.72;;;16.40;79.90;;;;;;10907615;32;20015;-69
2022/05/06 03:23:59;;;;;;;8.43;6.68;;;16.40;80.00;;;;;;10904855;32;20045;-71
2022/05/06 03:30:04;;;;;;;8.13;6.90;;;16.40;79.90;;;;;;10906995;32;20070;-71
2022/05/06 03:36:26;;;;;;;9.48;8.05;;;16.40;80.00;;;;;;10906960;32;20351;-71
2022/05/06 03:42:29;;;;;;;7.25;6.43;;;16.30;80.10;;;;;;10906747;32;20042;-70
2022/05/06 03:48:34;;;;;;;10.48;6.57;;;16.20;80.20;;;;;;10906454;32;20023;-69
2022/05/06 03:54:37;;;;;;;8.02;6.53;;;16.30;80.20;;;;;;10905931;32;20042;-70
2022/05/06 04:00:40;;;;;;;7.60;5.60;;;16.20;80.40;;;;;;10905956;32;20062;-70
2022/05/06 04:07:14;;;;;;;9.38;8.30;;;16.20;80.40;;;;;;10902026;32;20015;-71
2022/05/06 04:13:18;;;;;;;7.80;6.32;;;16.20;80.20;;;;;;10905499;32;20042;-69
2022/05/06 04:19:21;;;;;;;10.23;7.25;;;16.30;80.40;;;;;;10905504;32;20327;-70
2022/05/06 04:25:34;;;;;;;9.68;6.93;;;16.20;80.50;;;;;;10905314;32;20042;-71
2022/05/06 04:31:38;;;;;;;8.30;6.53;;;16.10;80.70;;;;;;10905094;32;20421;-71
2022/05/06 04:37:43;;;;;;;14.00;6.78;;;16.00;80.80;;;;;;10901027;32;20046;-70
2022/05/06 04:43:46;;;;;;;10.80;8.88;;;16.00;81.00;;;;;;10904344;32;20327;-70
2022/05/06 04:49:50;;;;;;;9.25;6.57;;;16.00;81.10;;;;;;10904717;32;20430;-71
2022/05/06 04:55:52;;;;;;;10.00;7.00;;;16.00;81.20;;;;;;10904386;32;20431;-71
2022/05/06 05:01:55;;;;;;;9.80;8.02;;;16.10;81.00;;;;;;10904174;32;20338;-71
2022/05/06 05:08:16;;;;;;;8.88;6.87;;;16.10;81.10;;;;;;10906697;32;20038;-70
2022/05/06 05:14:41;;;;;;;7.15;5.97;;;16.10;81.00;;;;;;10911683;32;20046;-70
2022/05/06 05:21:08;;;;;;;9.32;7.57;;;16.10;81.20;;;;;;10911584;32;20050;-71
2022/05/06 05:27:13;;;;;;;7.72;6.93;;;16.00;81.30;;;;;;10911510;32;20319;-72
2022/05/06 05:33:16;;;;;;;10.25;7.80;;;16.00;81.50;;;;;;10909614;32;20351;-71
2022/05/06 05:39:38;;;;;;;10.95;9.35;;;16.10;81.50;;;;;;10833269;32;20439;-72
2022/05/06 05:52:26;;;;;;;11.23;7.85;;;16.20;81.40;;;;;;10832294;32;20028;-71
2022/05/06 05:58:29;;;;;;;7.93;6.03;;;16.30;81.20;;;;;;10909172;32;20046;-72
2022/05/06 06:04:32;;;;;;;10.43;6.97;;;16.40;81.20;;;;;;10910069;32;20430;-71
2022/05/06 06:10:34;;;;;;;7.82;6.05;;;16.40;80.90;;;;;;10902465;27;20057;-71
2022/05/06 06:16:38;;;;;;;8.90;6.45;;;16.40;80.80;;;;;;10943870;32;20030;-71
2022/05/06 06:22:40;;;;;;;9.70;7.80;;;16.50;80.80;;;;;;10937055;32;20351;-70
2022/05/06 06:28:42;;;;;;;9.93;6.78;;;16.40;80.80;;;;;;10938762;32;20027;-71
2022/05/06 06:34:45;;;;;;;10.00;6.90;;;16.40;80.90;;;;;;10943354;32;20069;-71
2022/05/06 06:40:50;;;;;;;9.32;8.02;;;16.50;80.70;;;;;;10946525;32;20402;-71
2022/05/06 06:46:55;;;;;;;9.20;7.30;;;16.60;80.60;;;;;;10932906;32;20288;-71
2022/05/06 06:52:59;;;;;;;9.63;7.55;;;16.50;80.60;;;;;;10928495;32;20023;-71
2022/05/06 06:59:25;;;;;;;9.65;7.53;;;16.50;80.80;;;;;;10908394;32;20430;-71
2022/05/06 07:05:27;;;;;;;9.77;7.15;;;16.40;80.80;;;;;;10756847;33;20032;-70
2022/05/06 07:17:58;;;;;;;10.60;7.25;;;16.50;80.60;;;;;;10753489;33;20024;-71
2022/05/06 07:24:00;;;;;;;8.57;6.93;;;16.50;80.60;;;;;;10756430;33;20055;-71
2022/05/06 07:30:06;;;;;;;10.57;8.07;;;16.50;80.60;;;;;;10754515;33;20357;-70
2022/05/06 07:36:45;;;;;;;9.55;7.30;;;16.50;80.50;;;;;;10754683;33;20029;-71
2022/05/06 07:42:50;;;;;;;10.27;8.43;;;16.60;80.40;;;;;;10885769;32;20023;-70
2022/05/06 07:48:52;;;;;;;10.98;7.85;;;16.60;80.50;;;;;;10905977;32;20049;-70
2022/05/06 07:54:54;;;;;;;11.75;9.00;;;16.60;80.70;;;;;;10890975;32;20046;-71
2022/05/06 08:00:57;;;;;;;8.82;7.15;;;16.50;80.80;;;;;;10902485;32;20323;-71
2022/05/06 08:06:59;;;;;;;9.68;7.90;;;16.60;80.90;;;;;;10901603;32;20069;-71
2022/05/06 08:13:02;;;;;;;9.63;8.15;;;16.50;80.90;;;;;;10905565;32;20404;-71
2022/05/06 08:19:03;;;;;;;10.27;6.70;;;16.60;81.00;;;;;;10905273;32;20019;-70
2022/05/06 08:25:07;;;;;;;11.48;8.93;;;16.70;80.90;;;;;;10891785;32;20062;-71
2022/05/06 08:31:17;;;;;;;10.52;8.13;;;16.70;80.80;;;;;;10904442;32;20355;-71
2022/05/06 08:37:24;;;;;;;11.07;9.68;;;16.70;80.90;;;;;;10904905;32;20047;-71
2022/05/06 08:43:26;;;;;;;16.00;13.38;;;16.70;80.90;;;;;;10904591;32;20066;-71
2022/05/06 08:56:08;;;;;;;13.45;10.80;;;16.80;80.90;;;;;;10904510;32;20042;-71
2022/05/06 09:02:11;;;;;;;15.18;13.10;;;16.80;80.90;;;;;;10904188;32;20050;-71
2022/05/06 09:08:13;;;;;;;13.43;11.48;;;16.80;80.90;;;;;;10903637;32;20078;-70
2022/05/06 09:14:17;;;;;;;14.38;11.05;;;16.80;81.00;;;;;;10903934;32;20038;-70
2022/05/06 09:20:21;;;;;;;15.00;10.82;;;16.80;81.00;;;;;;10902934;32;20045;-69
2022/05/06 09:26:23;;;;;;;11.60;9.43;;;16.80;81.00;;;;;;10901952;32;20080;-70
2022/05/06 09:32:27;;;;;;;13.77;11.88;;;16.80;80.80;;;;;;10903764;32;20026;-70
2022/05/06 09:38:29;;;;;;;16.37;11.30;;;16.80;81.00;;;;;;10902797;32;20023;-69
2022/05/06 09:44:33;;;;;;;11.95;10.35;;;16.80;81.20;;;;;;10903286;32;20062;-69
2022/05/06 09:50:38;;;;;;;10.73;8.52;;;16.80;81.10;;;;;;10903418;32;20011;-69
2022/05/06 09:56:41;;;;;;;11.73;9.70;;;16.80;81.20;;;;;;10908625;32;20332;-68
2022/05/06 10:02:43;;;;;;;11.40;8.88;;;16.90;81.30;;;;;;10909185;32;20070;-69
2022/05/06 10:08:55;;;;;;;11.65;9.38;;;16.90;81.20;;;;;;10941932;32;20428;-69
2022/05/06 10:15:02;;;;;;;11.75;8.88;;;17.00;81.10;;;;;;10947348;32;20023;-69
2022/05/06 10:21:11;;;;;;;12.02;10.77;;;16.90;81.30;;;;;;10947305;32;20045;-67
2022/05/06 10:34:14;;;;;;;9.85;7.65;;;16.80;81.50;;;;;;10948795;32;20379;-69
2022/05/06 10:40:25;;;;;;;12.15;10.18;;;16.80;81.40;;;;;;10946656;32;20049;-69
2022/05/06 10:46:36;;;;;;;10.10;8.55;;;16.90;81.40;;;;;;10946561;32;20391;-70
2022/05/06 10:52:42;;;;;;;10.25;8.07;;;16.80;81.40;;;;;;10946004;32;20015;-69
2022/05/06 10:58:44;;;;;;;12.18;10.32;;;16.90;81.50;;;;;;10946013;32;20011;-70
2022/05/06 11:04:54;;;;;;;11.07;8.75;;;16.90;81.30;;;;;;10944754;32;20046;-70
2022/05/06 11:10:56;;;;;;;12.32;9.77;;;17.00;81.10;;;;;;10945036;32;20024;-71
2022/05/06 11:17:17;;;;;;;9.88;8.07;;;17.20;81.10;;;;;;10933234;32;20027;-71
2022/05/06 11:23:19;;;;;;;9.68;8.05;;;17.10;80.90;;;;;;10906620;32;20057;-71
2022/05/06 11:29:21;;;;;;;8.48;7.05;;;17.00;80.90;;;;;;10893140;32;20015;-71
2022/05/06 11:35:27;;;;;;;9.80;7.25;;;17.10;80.70;;;;;;10906809;32;20149;-72
2022/05/06 11:41:30;;;;;;;8.25;6.87;;;17.00;80.80;;;;;;10905225;32;20023;-71
2022/05/06 11:47:32;;;;;;;11.90;8.30;;;17.10;80.70;;;;;;10906501;32;20024;-72
2022/05/06 11:53:37;;;;;;;11.25;8.13;;;17.10;80.60;;;;;;10906306;32;20065;-72
2022/05/06 11:59:39;;;;;;;10.80;8.23;;;17.10;80.60;;;;;;10901903;32;20027;-72
2022/05/06 12:05:42;;;;;;;11.93;10.43;;;17.10;80.60;;;;;;10906023;32;20015;-73
2022/05/06 12:12:08;;;;;;;10.68;8.38;;;17.20;80.60;;;;;;10904527;32;20040;-71
2022/05/06 12:18:24;;;;;;;9.82;7.70;;;17.10;80.60;;;;;;10905346;32;20027;-73
2022/05/06 12:24:47;;;;;;;11.43;8.63;;;17.10;80.60;;;;;;10901593;32;20023;-72
2022/05/06 12:30:56;;;;;;;10.02;7.47;;;17.20;80.50;;;;;;10902709;32;20023;-72
2022/05/06 12:37:09;;;;;;;9.18;7.45;;;17.20;80.30;;;;;;10905118;32;20038;-73
2022/05/06 12:43:12;;;;;;;10.13;7.20;;;17.30;80.30;;;;;;10904649;32;20023;-73
2022/05/06 12:55:35;;;;;;;8.77;7.18;;;17.30;80.30;;;;;;10904642;32;20304;-70
2022/05/06 13:01:38;;;;;;;6.22;4.53;;;17.30;80.00;;;;;;10904477;32;20050;-70
2022/05/06 13:07:40;;;;;;;8.15;5.65;;;17.30;79.90;;;;;;10904644;32;20023;-70
2022/05/06 13:13:42;;;;;;;7.43;5.50;;;17.20;79.90;;;;;;10891099;32;20426;-70
2022/05/06 13:19:44;;;;;;;11.23;6.22;;;17.20;79.80;;;;;;10904314;32;20041;-70
2022/05/06 13:25:48;;;;;;;8.38;6.65;;;17.30;79.70;;;;;;10904007;32;20042;-71
2022/05/06 13:31:50;;;;;;;5.78;4.43;;;17.40;79.50;;;;;;10910242;32;20012;-70
2022/05/06 13:37:52;;;;;;;6.82;4.05;;;17.40;79.50;;;;;;10948563;32;20035;-71
2022/05/06 13:43:55;;;;;;;7.80;4.87;;;17.40;79.30;;;;;;10948938;32;20037;-70
2022/05/06 13:49:57;;;;;;;5.68;3.97;;;17.40;79.30;;;;;;10948109;32;20031;-70
2022/05/06 14:02:36;;;;;;;5.93;3.35;;;17.40;79.00;;;;;;10947521;32;20338;-72
2022/05/06 14:08:39;;;;;;;4.40;3.17;;;17.30;79.20;;;;;;10945746;32;20045;-72
2022/05/06 14:14:41;;;;;;;4.97;3.10;;;17.30;79.20;;;;;;10924046;27;20057;-72
2022/05/06 14:20:43;;;;;;;5.22;3.67;;;17.30;79.10;;;;;;10893920;32;20059;-72
2022/05/06 14:26:45;;;;;;;4.32;2.83;;;17.30;78.80;;;;;;10871553;32;20319;-71
2022/05/06 14:32:47;;;;;;;4.78;3.30;;;17.30;78.60;;;;;;10871724;32;20429;-72
2022/05/06 14:39:28;;;;;;;4.20;2.70;;;17.30;78.50;;;;;;10867562;32;20015;-72
2022/05/06 14:45:31;;;;;;;4.57;2.72;;;17.40;78.30;;;;;;10830261;32;20070;-72
2022/05/06 14:51:34;;;;;;;5.03;3.67;;;17.50;78.10;;;;;;10827064;32;20071;-72
2022/05/06 14:57:39;;;;;;;4.78;3.22;;;17.50;77.90;;;;;;10793274;33;20071;-73
2022/05/06 15:03:43;;;;;;;4.40;2.60;;;17.50;77.80;;;;;;10799000;32;20020;-73
2022/05/06 15:09:45;;;;;;;5.22;3.35;;;17.50;77.80;;;;;;10817860;32;20393;-73
2022/05/06 15:15:49;;;;;;;5.25;3.58;;;17.50;77.80;;;;;;10837155;32;20051;-72
2022/05/06 15:21:52;;;;;;;7.82;3.97;;;17.40;77.90;;;;;;10855220;32;20050;-72
2022/05/06 15:27:55;;;;;;;3.08;2.17;;;17.40;77.90;;;;;;10869965;32;20027;-72
2022/05/06 15:33:57;;;;;;;3.92;2.67;;;17.40;77.90;;;;;;10856447;32;20416;-72
2022/05/06 15:39:59;;;;;;;5.82;4.40;;;17.50;77.80;;;;;;10869676;32;20016;-72
2022/05/06 15:46:01;;;;;;;4.22;3.25;;;17.50;77.70;;;;;;10869763;32;20034;-72
2022/05/06 15:52:04;;;;;;;4.12;3.03;;;17.60;77.60;;;;;;10868713;32;20038;-72
2022/05/06 15:58:06;;;;;;;4.03;2.62;;;17.60;77.50;;;;;;10869071;32;20046;-72
2022/05/06 16:04:07;;;;;;;6.20;2.60;;;17.60;77.40;;;;;;10868500;32;20437;-72
2022/05/06 16:10:10;;;;;;;6.82;3.92;;;17.70;77.30;;;;;;10869139;32;20031;-72
2022/05/06 16:16:12;;;;;;;4.18;2.67;;;17.70;77.20;;;;;;10867201;32;20023;-72
2022/05/06 16:22:15;;;;;;;6.82;2.20;;;17.70;77.20;;;;;;10865913;32;20054;-72
2022/05/06 16:28:16;;;;;;;5.07;2.47;;;17.70;77.10;;;;;;10866288;32;20035;-73
2022/05/06 16:40:41;;;;;;;4.15;2.72;;;17.70;77.00;;;;;;10866311;32;20056;-73
2022/05/06 16:46:44;;;;;;;6.37;2.78;;;17.60;77.00;;;;;;10865298;32;20478;-72
2022/05/06 16:52:48;;;;;;;5.03;1.85;;;17.60;77.00;;;;;;10864963;32;20387;-72
2022/05/06 16:58:50;;;;;;;4.28;2.70;;;17.50;77.00;;;;;;10865703;32;20065;-72
2022/05/06 17:04:53;;;;;;;3.85;2.50;;;17.50;77.10;;;;;;10863518;32;20387;-72
2022/05/06 17:10:55;;;;;;;2.45;2.05;;;17.40;77.00;;;;;;10491937;32;12207796;-72
2022/05/06 17:16:57;;;;;;;3.70;2.42;;;17.50;77.00;;;;;;10821533;32;20411;-72
2022/05/06 17:22:59;;;;;;;3.37;2.22;;;17.40;77.00;;;;;;10826058;33;20043;-72
2022/05/06 17:29:01;;;;;;;3.97;2.70;;;17.40;77.00;;;;;;10821675;32;20313;-70
2022/05/06 17:35:23;;;;;;;3.30;2.30;;;17.30;77.00;;;;;;10825548;33;20055;-69
2022/05/06 17:41:26;;;;;;;5.07;3.03;;;17.30;77.00;;;;;;10881068;32;20027;-70
2022/05/06 17:47:28;;;;;;;5.45;3.60;;;17.30;77.00;;;;;;10866834;32;20050;-70
2022/05/06 17:53:29;;;;;;;5.22;3.60;;;17.30;77.00;;;;;;10866794;32;20028;-70
2022/05/06 17:59:31;;;;;;;5.30;3.87;;;17.20;77.10;;;;;;10862177;32;20051;-70
2022/05/06 18:05:36;;;;;;;4.45;3.40;;;17.30;77.10;;;;;;10866646;32;20387;-70
2022/05/06 18:12:01;;;;;;;4.70;3.20;;;17.30;77.10;;;;;;10865778;32;20035;-70
2022/05/06 18:18:05;;;;;;;7.35;4.53;;;17.10;77.20;;;;;;10873190;32;20042;-70
2022/05/06 18:24:24;;;;;;;7.30;4.65;;;17.10;77.40;;;;;;10872976;32;20058;-71
2022/05/06 18:30:37;;;;;;;6.12;4.87;;;17.00;77.50;;;;;;10872627;32;20024;-71
2022/05/06 18:36:39;;;;;;;7.97;5.68;;;17.00;77.70;;;;;;10871975;32;20028;-71
2022/05/06 18:42:40;;;;;;;5.82;4.35;;;17.00;77.70;;;;;;10871853;32;20023;-71
2022/05/06 18:48:47;;;;;;;7.18;4.60;;;17.00;77.60;;;;;;10867734;32;20335;-71
2022/05/06 18:54:49;;;;;;;7.62;4.37;;;16.90;77.70;;;;;;10868374;32;20065;-71
2022/05/06 19:00:51;;;;;;;5.43;4.03;;;17.00;77.60;;;;;;10870917;32;20351;-71
2022/05/06 19:06:55;;;;;;;6.18;4.30;;;17.00;77.60;;;;;;10870602;32;20020;-70
2022/05/06 19:12:57;;;;;;;8.52;4.37;;;17.00;77.50;;;;;;10853177;32;20054;-70
2022/05/06 19:18:59;;;;;;;6.15;4.35;;;17.00;77.50;;;;;;10870245;32;20042;-70
2022/05/06 19:25:03;;;;;;;6.37;3.90;;;17.00;77.40;;;;;;10869627;32;20391;-70
2022/05/06 19:31:05;;;;;;;8.68;5.12;;;16.90;77.40;;;;;;10870067;32;20308;-70
2022/05/06 19:37:08;;;;;;;6.97;4.18;;;16.80;77.40;;;;;;10856530;32;20027;-70
2022/05/06 19:43:10;;;;;;;5.45;3.35;;;16.80;77.30;;;;;;10867914;32;20023;-70
2022/05/06 19:49:13;;;;;;;5.47;3.53;;;16.80;77.30;;;;;;10869366;32;20058;-70
2022/05/06 19:55:16;;;;;;;4.80;3.85;;;16.80;77.30;;;;;;10855983;32;20007;-70
2022/05/06 20:01:18;;;;;;;5.47;4.10;;;16.80;77.20;;;;;;10868865;32;20062;-70
2022/05/06 20:07:20;;;;;;;7.55;4.62;;;16.80;77.30;;;;;;10868692;32;20042;-70
2022/05/06 20:13:22;;;;;;;8.60;5.68;;;16.70;77.30;;;;;;10855221;32;20062;-70
2022/05/06 20:19:24;;;;;;;6.15;3.62;;;16.80;77.20;;;;;;10864425;32;20423;-70
2022/05/06 20:25:26;;;;;;;5.68;4.32;;;16.80;77.20;;;;;;10867961;32;20426;-70
2022/05/06 20:31:30;;;;;;;7.22;5.35;;;16.70;77.20;;;;;;10868001;32;20023;-70
2022/05/06 20:37:34;;;;;;;7.40;4.10;;;16.70;77.20;;;;;;10867496;32;20046;-70
2022/05/06 20:43:37;;;;;;;7.65;5.00;;;16.70;77.20;;;;;;10863334;32;20293;-70
2022/05/06 20:49:39;;;;;;;6.90;4.78;;;16.70;77.20;;;;;;10867497;32;20384;-70
2022/05/06 20:55:41;;;;;;;6.12;4.15;;;16.70;77.20;;;;;;10867489;32;20046;-70
2022/05/06 21:01:55;;;;;;;7.70;5.35;;;16.70;77.20;;;;;;10863985;32;20036;-70
2022/05/06 21:14:34;;;;;;;7.87;5.03;;;16.70;77.20;;;;;;10862401;32;20031;-70
2022/05/06 21:20:37;;;;;;;11.07;6.40;;;16.70;77.10;;;;;;10866844;32;20003;-70
2022/05/06 21:26:39;;;;;;;6.28;4.50;;;16.70;77.10;;;;;;10853647;32;20028;-69
2022/05/06 21:32:41;;;;;;;6.28;5.12;;;16.60;77.10;;;;;;10866541;32;20050;-70
2022/05/06 21:38:43;;;;;;;8.75;6.47;;;16.60;77.20;;;;;;10853372;32;20035;-74
2022/05/06 21:44:45;;;;;;;7.45;5.87;;;16.70;77.20;;;;;;10863534;32;20319;-74
2022/05/06 21:50:48;;;;;;;9.95;6.85;;;16.70;77.20;;;;;;10869182;32;20062;-74
2022/05/06 21:56:50;;;;;;;9.07;6.22;;;16.70;77.20;;;;;;10869410;32;20050;-73
2022/05/06 22:02:52;;;;;;;8.10;5.97;;;16.70;77.10;;;;;;10870750;32;20032;-74
2022/05/06 22:08:54;;;;;;;8.05;5.78;;;16.60;77.20;;;;;;10872947;32;20085;-74
2022/05/06 22:14:56;;;;;;;7.75;5.72;;;16.60;77.20;;;;;;10929420;27;20480;-74
2022/05/06 22:20:58;;;;;;;9.27;6.35;;;16.50;77.20;;;;;;10943449;32;20323;-74
2022/05/06 22:27:01;;;;;;;9.88;7.12;;;16.50;77.20;;;;;;10924675;32;20027;-74
2022/05/06 22:39:25;;;;;;;8.63;5.90;;;16.50;77.20;;;;;;10931436;32;20019;-74
2022/05/06 22:51:48;;;;;;;8.55;6.37;;;16.50;77.10;;;;;;10946601;32;20315;-73
2022/05/06 22:57:50;;;;;;;10.38;6.60;;;16.60;77.10;;;;;;10946211;32;20022;-73
2022/05/06 23:03:52;;;;;;;8.23;5.97;;;16.50;77.10;;;;;;10942256;32;20396;-74
2022/05/06 23:09:55;;;;;;;11.32;6.03;;;16.50;77.10;;;;;;10945939;32;20049;-74
2022/05/06 23:15:57;;;;;;;8.02;5.87;;;16.40;77.10;;;;;;10929147;32;20019;-73
2022/05/06 23:21:59;;;;;;;8.40;6.22;;;16.40;77.20;;;;;;10931815;32;20030;-74
2022/05/06 23:28:01;;;;;;;10.85;7.95;;;16.40;77.20;;;;;;10931820;32;20019;-73
2022/05/06 23:34:03;;;;;;;7.70;5.60;;;16.30;77.20;;;;;;10945129;32;20335;-73
2022/05/06 23:40:06;;;;;;;6.53;4.82;;;16.30;77.10;;;;;;10944977;32;20055;-73
2022/05/06 23:46:08;;;;;;;7.97;6.03;;;16.30;77.10;;;;;;10944462;32;20023;-73
2022/05/06 23:52:10;;;;;;;8.82;5.47;;;16.30;77.10;;;;;;10944253;32;20023;-73
2022/05/06 23:58:13;;;;;;;8.13;4.85;;;16.30;77.20;;;;;;10944019;32;20054;-73
